createdAt,value
2022-11-02T00:01:39.123Z,11.00
2022-11-02T00:04:06.031Z,11.00
2022-11-02T00:06:32.916Z,11.00
2022-11-02T00:08:59.729Z,10.90
2022-11-02T00:11:27.088Z,10.80
2022-11-02T00:13:53.919Z,10.90
2022-11-02T00:16:22.307Z,10.80
2022-11-02T00:18:52.862Z,10.80
2022-11-02T00:21:21.709Z,10.80
2022-11-02T00:23:49.737Z,10.80
2022-11-02T00:26:17.295Z,10.80
2022-11-02T00:28:44.878Z,10.80
2022-11-02T00:31:11.717Z,10.80
2022-11-02T00:33:38.512Z,10.70
2022-11-02T00:36:05.604Z,10.70
2022-11-02T00:38:32.548Z,10.70
2022-11-02T00:40:59.922Z,10.80
2022-11-02T00:43:26.717Z,10.80
2022-11-02T00:45:53.550Z,10.70
2022-11-02T00:48:22.406Z,10.80
2022-11-02T00:50:49.471Z,10.60
2022-11-02T00:53:18.250Z,10.60
2022-11-02T00:55:51.439Z,10.60
2022-11-02T00:58:18.393Z,10.80
2022-11-02T01:00:45.246Z,10.60
2022-11-02T01:03:12.119Z,10.50
2022-11-02T01:05:39.182Z,10.60
2022-11-02T01:08:06.250Z,10.60
2022-11-02T01:10:33.773Z,10.60
2022-11-02T01:13:01.585Z,10.60
2022-11-02T01:15:28.449Z,10.50
2022-11-02T01:17:55.399Z,10.60
2022-11-02T01:20:22.212Z,10.50
2022-11-02T01:22:49.115Z,10.40
2022-11-02T01:25:16.089Z,10.40
2022-11-02T01:27:42.865Z,10.50
2022-11-02T01:30:10.374Z,10.30
2022-11-02T01:32:37.252Z,10.30
2022-11-02T01:35:04.346Z,10.30
2022-11-02T01:37:31.182Z,10.20
2022-11-02T01:39:57.980Z,10.20
2022-11-02T01:42:26.838Z,10.30
2022-11-02T01:44:53.707Z,10.30
2022-11-02T01:47:28.183Z,10.20
2022-11-02T01:50:01.155Z,10.20
2022-11-02T01:52:34.339Z,10.20
2022-11-02T01:55:11.646Z,10.30
2022-11-02T01:57:41.310Z,10.30
2022-11-02T02:00:11.999Z,10.30
2022-11-02T02:03:06.635Z,10.30
2022-11-02T02:05:38.352Z,10.20
2022-11-02T02:08:08.163Z,10.00
2022-11-02T02:10:36.237Z,10.20
2022-11-02T02:13:07.270Z,10.10
2022-11-02T02:16:08.083Z,10.20
2022-11-02T02:18:57.297Z,10.10
2022-11-02T02:21:56.358Z,10.20
2022-11-02T02:24:42.006Z,10.30
2022-11-02T02:27:48.524Z,10.40
2022-11-02T02:30:17.090Z,10.40
2022-11-02T02:32:57.321Z,10.30
2022-11-02T02:35:50.862Z,10.30
2022-11-02T02:38:35.030Z,10.20
2022-11-02T02:41:17.082Z,10.20
2022-11-02T02:43:49.319Z,10.10
2022-11-02T02:46:26.825Z,10.30
2022-11-02T02:48:57.067Z,10.30
2022-11-02T02:51:32.449Z,10.20
2022-11-02T02:54:06.331Z,10.30
2022-11-02T02:56:40.331Z,10.30
2022-11-02T02:59:25.976Z,10.30
2022-11-02T03:01:55.664Z,10.20
2022-11-02T03:04:23.389Z,10.20
2022-11-02T03:06:54.135Z,10.20
2022-11-02T03:09:45.197Z,10.20
2022-11-02T03:12:30.661Z,10.10
2022-11-02T03:15:24.382Z,10.00
2022-11-02T03:17:55.526Z,9.90
2022-11-02T03:21:03.997Z,10.00
2022-11-02T03:23:38.019Z,10.00
2022-11-02T03:26:18.322Z,9.90
2022-11-02T03:28:59.545Z,10.00
2022-11-02T03:31:34.259Z,10.10
2022-11-02T03:34:19.271Z,10.10
2022-11-02T03:36:51.090Z,10.00
2022-11-02T03:39:25.065Z,10.00
2022-11-02T03:41:54.661Z,10.00
2022-11-02T03:44:25.078Z,10.00
2022-11-02T03:46:59.549Z,9.80
2022-11-02T03:49:29.941Z,10.00
2022-11-02T03:52:01.879Z,9.90
2022-11-02T03:54:32.091Z,9.80
2022-11-02T03:59:33.571Z,9.70
2022-11-02T04:02:01.603Z,9.70
2022-11-02T04:04:29.468Z,9.70
2022-11-02T04:06:57.309Z,9.60
2022-11-02T04:09:24.341Z,9.80
2022-11-02T04:12:09.821Z,9.80
2022-11-02T04:14:40.259Z,9.80
2022-11-02T04:17:32.164Z,9.80
2022-11-02T04:20:01.289Z,9.80
2022-11-02T04:22:46.655Z,9.70
2022-11-02T04:25:18.996Z,9.80
2022-11-02T04:28:14.326Z,9.80
2022-11-02T04:30:47.521Z,9.70
2022-11-02T04:33:32.834Z,9.70
2022-11-02T04:36:07.360Z,9.90
2022-11-02T04:38:40.966Z,9.80
2022-11-02T04:41:44.081Z,10.10
2022-11-02T04:44:28.942Z,10.40
2022-11-02T04:47:11.410Z,10.30
2022-11-02T04:49:38.304Z,10.20
2022-11-02T04:52:09.872Z,10.20
2022-11-02T04:54:39.680Z,10.20
2022-11-02T04:57:06.956Z,10.00
2022-11-02T04:59:34.008Z,10.20
2022-11-02T05:02:00.895Z,10.20
2022-11-02T05:04:28.399Z,10.40
2022-11-02T05:07:01.073Z,10.40
2022-11-02T05:09:28.819Z,10.40
2022-11-02T05:11:55.695Z,10.30
2022-11-02T05:14:22.826Z,10.30
2022-11-02T05:16:49.685Z,10.30
2022-11-02T05:19:16.474Z,10.30
2022-11-02T05:21:44.306Z,10.30
2022-11-02T05:24:11.538Z,10.20
2022-11-02T05:26:39.387Z,10.20
2022-11-02T05:29:07.748Z,10.40
2022-11-02T05:31:35.838Z,10.20
2022-11-02T05:34:02.651Z,10.10
2022-11-02T05:36:29.542Z,10.10
2022-11-02T05:38:56.952Z,10.00
2022-11-02T05:41:24.669Z,9.90
2022-11-02T05:43:54.613Z,9.90
2022-11-02T05:46:23.055Z,9.80
2022-11-02T05:48:49.823Z,9.90
2022-11-02T05:51:16.776Z,9.90
2022-11-02T05:53:44.115Z,9.80
2022-11-02T05:56:11.896Z,9.80
2022-11-02T05:58:38.860Z,9.70
2022-11-02T06:01:07.893Z,9.80
2022-11-02T06:03:36.149Z,9.80
2022-11-02T06:06:09.869Z,9.90
2022-11-02T06:08:38.692Z,9.80
2022-11-02T06:11:10.822Z,9.90
2022-11-02T06:13:38.127Z,9.70
2022-11-02T06:16:09.185Z,9.60
2022-11-02T06:18:36.957Z,9.60
2022-11-02T06:21:04.341Z,9.70
2022-11-02T06:23:31.587Z,9.60
2022-11-02T06:26:00.327Z,9.60
2022-11-02T06:28:27.948Z,9.60
2022-11-02T06:30:55.943Z,9.50
2022-11-02T06:33:23.265Z,9.70
2022-11-02T06:35:52.322Z,9.80
2022-11-02T06:38:19.812Z,9.80
2022-11-02T06:40:57.309Z,9.70
2022-11-02T06:43:25.303Z,9.70
2022-11-02T06:45:56.502Z,9.60
2022-11-02T06:48:23.925Z,9.70
2022-11-02T06:50:50.790Z,9.60
2022-11-02T06:53:18.366Z,9.50
2022-11-02T06:55:45.231Z,9.60
2022-11-02T06:58:12.035Z,9.60
2022-11-02T07:00:38.952Z,9.80
2022-11-02T07:03:09.538Z,9.60
2022-11-02T07:05:37.338Z,9.70
2022-11-02T07:08:05.282Z,9.70
2022-11-02T07:10:32.450Z,9.70
2022-11-02T07:12:59.323Z,9.70
2022-11-02T07:15:27.505Z,9.70
2022-11-02T07:17:54.543Z,9.70
2022-11-02T07:20:21.627Z,9.70
2022-11-02T07:22:59.695Z,9.80
2022-11-02T07:25:28.290Z,10.10
2022-11-02T07:27:55.178Z,10.10
2022-11-02T07:30:22.640Z,10.10
2022-11-02T07:32:50.623Z,10.20
2022-11-02T07:35:18.585Z,10.30
2022-11-02T07:37:54.302Z,10.20
2022-11-02T07:40:21.786Z,10.30
2022-11-02T07:42:48.585Z,10.40
2022-11-02T07:45:18.557Z,10.40
2022-11-02T07:47:45.960Z,10.50
2022-11-02T07:50:14.828Z,10.40
2022-11-02T07:52:49.663Z,10.50
2022-11-02T07:55:18.603Z,10.50
2022-11-02T07:57:57.883Z,10.70
2022-11-02T08:00:26.612Z,10.50
2022-11-02T08:02:58.242Z,10.50
2022-11-02T08:05:26.171Z,10.50
2022-11-02T08:08:14.816Z,10.60
2022-11-02T08:10:42.252Z,10.60
2022-11-02T08:13:10.803Z,10.60
2022-11-02T08:15:37.952Z,10.70
2022-11-02T08:18:16.356Z,10.80
2022-11-02T08:20:43.454Z,10.70
2022-11-02T08:23:11.260Z,10.70
2022-11-02T08:25:40.086Z,10.70
2022-11-02T08:28:10.764Z,10.80
2022-11-02T08:30:38.287Z,10.80
2022-11-02T08:33:07.661Z,10.80
2022-11-02T08:35:36.425Z,10.90
2022-11-02T08:38:04.457Z,10.70
2022-11-02T08:40:31.555Z,11.00
2022-11-02T08:42:59.662Z,10.80
2022-11-02T08:45:27.488Z,10.90
2022-11-02T08:47:54.696Z,11.00
2022-11-02T08:50:22.044Z,10.90
2022-11-02T08:52:48.864Z,10.90
2022-11-02T08:55:15.978Z,10.80
2022-11-02T08:57:56.362Z,10.90
2022-11-02T09:00:25.545Z,10.90
2022-11-02T09:03:00.577Z,10.90
2022-11-02T09:05:28.892Z,10.70
2022-11-02T09:08:00.577Z,10.80
2022-11-02T09:10:29.663Z,10.90
2022-11-02T09:12:56.565Z,10.90
2022-11-02T09:15:23.583Z,10.80
2022-11-02T09:17:50.785Z,10.80
2022-11-02T09:20:18.983Z,10.90
2022-11-02T09:22:46.690Z,10.90
2022-11-02T09:25:14.490Z,10.90
2022-11-02T09:27:42.487Z,11.00
2022-11-02T09:30:10.623Z,11.00
2022-11-02T09:32:38.627Z,11.10
2022-11-02T09:35:09.458Z,11.00
2022-11-02T09:37:36.905Z,10.90
2022-11-02T09:40:05.283Z,10.90
2022-11-02T09:42:51.061Z,11.00
2022-11-02T09:45:18.738Z,11.20
2022-11-02T09:50:41.822Z,11.10
2022-11-02T09:53:14.276Z,11.10
2022-11-02T09:55:51.273Z,11.30
2022-11-02T09:58:22.998Z,11.30
2022-11-02T10:01:00.717Z,11.20
2022-11-02T10:04:07.597Z,11.10
2022-11-02T10:06:37.590Z,11.20
2022-11-02T10:09:11.574Z,11.30
2022-11-02T10:11:52.055Z,11.20
2022-11-02T10:14:34.862Z,11.30
2022-11-02T10:17:16.250Z,11.30
2022-11-02T10:19:51.056Z,11.30
2022-11-02T10:22:18.387Z,11.40
2022-11-02T10:24:47.043Z,11.40
2022-11-02T10:27:29.404Z,11.30
2022-11-02T10:30:13.133Z,11.40
2022-11-02T10:32:41.017Z,11.40
2022-11-02T10:35:37.080Z,11.50
2022-11-02T10:38:37.200Z,11.40
2022-11-02T10:41:28.469Z,11.50
2022-11-02T10:44:01.767Z,11.60
2022-11-02T10:46:47.803Z,11.50
2022-11-02T10:49:46.989Z,11.60
2022-11-02T10:52:16.537Z,11.70
2022-11-02T10:54:43.568Z,11.80
2022-11-02T10:57:18.449Z,11.80
2022-11-02T10:59:45.247Z,11.60
2022-11-02T11:02:14.518Z,11.80
2022-11-02T11:04:42.541Z,11.60
2022-11-02T11:07:25.590Z,11.70
2022-11-02T11:09:55.537Z,11.60
2022-11-02T11:12:30.692Z,11.70
2022-11-02T11:20:39.619Z,11.70
2022-11-02T11:23:20.083Z,11.70
2022-11-02T11:26:04.545Z,11.80
2022-11-02T11:28:55.029Z,11.90
2022-11-02T11:31:22.549Z,11.90
2022-11-02T11:33:55.736Z,11.90
2022-11-02T11:38:55.374Z,11.80
2022-11-02T11:41:23.225Z,11.90
2022-11-02T11:43:52.260Z,11.80
2022-11-02T11:46:19.265Z,11.90
2022-11-02T11:48:57.641Z,11.90
2022-11-02T11:51:45.171Z,11.80
2022-11-02T11:54:26.873Z,11.90
2022-11-02T11:57:23.039Z,11.90
2022-11-02T11:59:55.759Z,12.00
2022-11-02T12:02:29.056Z,12.10
2022-11-02T12:05:00.725Z,12.00
2022-11-02T12:07:39.460Z,12.00
2022-11-02T12:10:22.811Z,12.00
2022-11-02T12:13:12.395Z,12.00
2022-11-02T12:16:00.771Z,12.00
2022-11-02T12:18:39.023Z,12.00
2022-11-02T12:21:12.062Z,12.10
2022-11-02T12:24:10.162Z,12.20
2022-11-02T12:27:15.540Z,12.10
2022-11-02T12:30:04.367Z,12.10
2022-11-02T12:32:34.256Z,12.20
2022-11-02T12:35:29.443Z,12.10
2022-11-02T12:38:38.845Z,12.20
2022-11-02T12:41:13.153Z,12.20
2022-11-02T12:43:45.623Z,12.30
2022-11-02T12:46:48.551Z,12.50
2022-11-02T12:49:35.448Z,12.50
2022-11-02T12:52:24.501Z,12.50
2022-11-02T12:54:56.390Z,12.70
2022-11-02T12:57:27.220Z,12.70
2022-11-02T13:00:00.851Z,12.70
2022-11-02T13:02:35.022Z,12.80
2022-11-02T13:05:24.473Z,12.80
2022-11-02T13:08:01.751Z,13.00
2022-11-02T13:10:34.455Z,13.00
2022-11-02T13:13:04.357Z,13.00
2022-11-02T13:15:35.843Z,13.00
2022-11-02T13:18:11.488Z,13.00
2022-11-02T13:20:46.689Z,13.20
2022-11-02T13:23:34.375Z,13.10
2022-11-02T13:26:06.571Z,13.20
2022-11-02T13:28:47.250Z,13.20
2022-11-02T13:31:37.792Z,13.20
2022-11-02T13:34:14.195Z,13.20
2022-11-02T13:36:42.096Z,13.30
2022-11-02T13:39:35.252Z,13.20
2022-11-02T13:42:39.749Z,13.30
2022-11-02T13:45:15.930Z,13.30
2022-11-02T13:47:52.332Z,13.40
2022-11-02T13:50:23.518Z,13.40
2022-11-02T13:53:05.252Z,13.20
2022-11-02T13:55:44.574Z,13.20
2022-11-02T13:58:26.347Z,13.30
2022-11-02T14:00:58.666Z,13.30
2022-11-02T14:03:40.098Z,13.30
2022-11-02T14:06:12.588Z,13.30
2022-11-02T14:08:42.371Z,13.30
2022-11-02T14:11:09.163Z,13.20
2022-11-02T14:13:51.474Z,13.30
2022-11-02T14:16:42.714Z,13.30
2022-11-02T14:19:20.297Z,13.20
2022-11-02T14:21:59.706Z,13.30
2022-11-02T14:24:32.762Z,13.20
2022-11-02T14:27:25.615Z,13.30
2022-11-02T14:29:54.667Z,13.20
2022-11-02T14:32:21.504Z,13.20
2022-11-02T14:35:04.360Z,13.00
2022-11-02T14:38:09.041Z,13.10
2022-11-02T14:41:13.719Z,13.10
2022-11-02T14:44:04.213Z,12.90
2022-11-02T14:46:37.116Z,12.90
2022-11-02T14:49:05.870Z,12.80
2022-11-02T14:51:37.976Z,12.80
2022-11-02T14:54:08.558Z,12.80
2022-11-02T14:56:53.751Z,12.80
2022-11-02T14:59:45.494Z,12.80
2022-11-02T15:02:46.926Z,12.70
2022-11-02T15:05:37.294Z,12.80
2022-11-02T15:08:08.290Z,12.60
2022-11-02T15:10:39.156Z,12.60
2022-11-02T15:13:21.517Z,12.60
2022-11-02T15:15:51.762Z,12.50
2022-11-02T15:18:27.577Z,12.50
2022-11-02T15:21:17.276Z,12.50
2022-11-02T15:24:04.049Z,12.40
2022-11-02T15:26:48.244Z,12.40
2022-11-02T15:29:45.993Z,12.40
2022-11-02T15:32:22.778Z,12.40
2022-11-02T15:34:52.343Z,12.40
2022-11-02T15:37:29.778Z,12.30
2022-11-02T15:40:03.072Z,12.20
2022-11-02T15:42:57.740Z,12.20
2022-11-02T15:45:55.265Z,12.10
2022-11-02T15:48:37.334Z,12.10
2022-11-02T15:51:13.430Z,12.00
2022-11-02T15:54:12.875Z,11.90
2022-11-02T15:57:01.252Z,11.90
2022-11-02T15:59:56.453Z,11.80
2022-11-02T16:02:25.365Z,11.80
2022-11-02T16:04:56.902Z,11.70
2022-11-02T16:07:33.299Z,11.70
2022-11-02T16:10:13.176Z,11.60
2022-11-02T16:12:40.079Z,11.60
2022-11-02T16:15:13.669Z,11.50
2022-11-02T16:17:42.188Z,11.40
2022-11-02T16:20:34.738Z,11.30
2022-11-02T16:23:04.386Z,11.30
2022-11-02T16:25:41.517Z,11.20
2022-11-02T16:28:13.866Z,11.20
2022-11-02T16:30:41.190Z,11.20
2022-11-02T16:33:11.331Z,11.30
2022-11-02T16:35:38.333Z,11.20
2022-11-02T16:38:05.431Z,11.10
2022-11-02T16:40:32.699Z,11.10
2022-11-02T16:42:59.647Z,11.00
2022-11-02T16:45:31.722Z,11.00
2022-11-02T16:47:58.611Z,10.90
2022-11-02T16:50:27.675Z,10.80
2022-11-02T16:53:02.438Z,10.80
2022-11-02T16:55:49.711Z,10.80
2022-11-02T16:58:25.636Z,10.80
2022-11-02T17:00:55.718Z,10.80
2022-11-02T17:03:26.149Z,10.90
2022-11-02T17:05:54.333Z,10.80
2022-11-02T17:08:29.183Z,10.80
2022-11-02T17:10:59.010Z,10.70
2022-11-02T17:13:27.076Z,10.70
2022-11-02T17:15:56.855Z,10.70
2022-11-02T17:18:25.927Z,10.60
2022-11-02T17:21:16.697Z,10.50
2022-11-02T17:23:45.373Z,10.60
2022-11-02T17:26:29.440Z,10.40
2022-11-02T17:28:57.513Z,10.50
2022-11-02T17:31:36.161Z,10.50
2022-11-02T17:34:10.146Z,10.50
2022-11-02T17:36:44.752Z,10.30
2022-11-02T17:39:16.278Z,10.40
2022-11-02T17:42:03.085Z,10.50
2022-11-02T17:44:29.901Z,10.30
2022-11-02T17:46:56.748Z,10.40
2022-11-02T17:49:23.561Z,10.30
2022-11-02T17:51:50.468Z,10.30
2022-11-02T17:54:17.357Z,10.30
2022-11-02T17:56:44.185Z,10.40
2022-11-02T17:59:11.027Z,10.30
2022-11-02T18:01:38.044Z,10.20
2022-11-02T18:04:05.140Z,10.20
2022-11-02T18:06:32.066Z,10.30
2022-11-02T18:09:10.960Z,10.20
2022-11-02T18:11:37.759Z,10.40
2022-11-02T18:14:04.998Z,10.20
2022-11-02T18:16:32.295Z,10.20
2022-11-02T18:18:59.136Z,10.20
2022-11-02T18:21:25.968Z,10.20
2022-11-02T18:23:52.752Z,10.10
2022-11-02T18:26:19.542Z,10.00
2022-11-02T18:28:46.366Z,10.00
2022-11-02T18:31:13.244Z,10.10
2022-11-02T18:33:42.691Z,10.30
2022-11-02T18:36:10.845Z,10.10
2022-11-02T18:38:37.698Z,10.10
2022-11-02T18:41:26.988Z,10.20
2022-11-02T18:44:00.547Z,10.20
2022-11-02T18:46:30.692Z,10.10
2022-11-02T18:48:58.056Z,10.20
2022-11-02T18:51:25.477Z,10.10
2022-11-02T18:53:57.732Z,10.20
2022-11-02T18:56:24.835Z,10.20
2022-11-02T18:58:52.436Z,10.10
2022-11-02T19:01:21.097Z,10.10
2022-11-02T19:03:56.614Z,10.10
2022-11-02T19:06:43.412Z,10.10
2022-11-02T19:09:18.430Z,10.30
2022-11-02T19:11:50.196Z,10.40
2022-11-02T19:14:18.390Z,10.50
2022-11-02T19:16:45.233Z,10.50
2022-11-02T19:19:12.131Z,10.60
2022-11-02T19:21:38.959Z,10.60
2022-11-02T19:24:06.360Z,10.50
2022-11-02T19:26:34.903Z,10.40
2022-11-02T19:29:05.954Z,10.50
2022-11-02T19:31:34.601Z,10.40
2022-11-02T19:34:01.855Z,10.30
2022-11-02T19:36:28.671Z,10.40
2022-11-02T19:38:55.669Z,10.40
2022-11-02T19:41:23.852Z,10.50
2022-11-02T19:43:51.293Z,10.30
2022-11-02T19:46:21.024Z,10.30
2022-11-02T19:48:48.442Z,10.50
2022-11-02T19:51:21.199Z,10.40
2022-11-02T19:53:53.645Z,10.20
2022-11-02T19:56:21.926Z,10.30
2022-11-02T19:58:50.887Z,10.30
2022-11-02T20:01:19.030Z,10.40
2022-11-02T20:03:46.426Z,10.50
2022-11-02T20:06:22.108Z,10.50
2022-11-02T20:08:52.580Z,10.30
2022-11-02T20:11:19.852Z,10.20
2022-11-02T20:13:47.942Z,10.20
2022-11-02T20:16:17.250Z,10.20
2022-11-02T20:18:46.374Z,10.40
2022-11-02T20:21:18.972Z,10.10
2022-11-02T20:23:46.663Z,10.10
2022-11-02T20:26:23.067Z,10.20
2022-11-02T20:28:50.371Z,10.00
2022-11-02T20:31:23.438Z,10.00
2022-11-02T20:33:50.301Z,10.00
2022-11-02T20:36:17.321Z,10.10
2022-11-02T20:38:44.277Z,9.90
2022-11-02T20:41:16.400Z,9.90
2022-11-02T20:43:45.009Z,10.00
2022-11-02T20:46:36.382Z,10.00
2022-11-02T20:49:13.939Z,10.00
2022-11-02T20:51:51.114Z,9.90
2022-11-02T20:54:21.532Z,9.90
2022-11-02T20:56:49.584Z,9.80
2022-11-02T20:59:16.460Z,9.90
2022-11-02T21:01:43.462Z,10.00
2022-11-02T21:04:13.900Z,9.80
2022-11-02T21:06:45.271Z,9.90
2022-11-02T21:09:12.355Z,9.90
2022-11-02T21:11:58.323Z,9.90
2022-11-02T21:14:25.286Z,9.90
2022-11-02T21:16:52.125Z,10.00
2022-11-02T21:19:18.956Z,9.90
2022-11-02T21:21:45.769Z,9.90
2022-11-02T21:24:12.652Z,9.90
2022-11-02T21:26:39.504Z,9.90
2022-11-02T21:29:06.328Z,9.90
2022-11-02T21:31:33.136Z,9.90
2022-11-02T21:34:00.079Z,10.00
2022-11-02T21:36:26.876Z,10.00
2022-11-02T21:38:53.926Z,9.90
2022-11-02T21:41:24.784Z,10.00
2022-11-02T21:43:52.359Z,10.00
2022-11-02T21:46:19.887Z,10.20
2022-11-02T21:48:47.345Z,10.20
2022-11-02T21:51:17.614Z,10.20
2022-11-02T21:53:45.529Z,10.20
2022-11-02T21:56:15.122Z,10.10
2022-11-02T21:58:45.801Z,10.10
2022-11-02T22:01:49.664Z,10.00
2022-11-02T22:04:31.497Z,10.00
2022-11-02T22:06:59.778Z,10.00
2022-11-02T22:09:27.338Z,10.10
2022-11-02T22:12:13.649Z,10.30
2022-11-02T22:14:41.614Z,10.10
2022-11-02T22:17:16.465Z,10.00
2022-11-02T22:19:50.086Z,9.90
2022-11-02T22:22:17.188Z,10.00
2022-11-02T22:24:45.063Z,9.90
2022-11-02T22:27:12.352Z,10.00
2022-11-02T22:29:39.105Z,10.10
2022-11-02T22:32:06.199Z,10.20
2022-11-02T22:34:32.969Z,10.40
2022-11-02T22:37:19.664Z,10.30
2022-11-02T22:39:46.466Z,10.40
2022-11-02T22:42:13.210Z,10.20
2022-11-02T22:44:39.975Z,10.20
2022-11-02T22:47:06.804Z,10.20
2022-11-02T22:49:36.154Z,10.20
2022-11-02T22:52:03.153Z,10.20
2022-11-02T22:54:29.982Z,10.20
2022-11-02T22:56:56.817Z,10.20
2022-11-02T22:59:23.672Z,10.20
2022-11-02T23:01:51.419Z,10.30
2022-11-02T23:04:18.505Z,10.10
2022-11-02T23:06:45.319Z,10.20
2022-11-02T23:09:12.322Z,10.30
2022-11-02T23:11:39.193Z,10.30
2022-11-02T23:14:11.635Z,10.30
2022-11-02T23:16:43.766Z,10.10
2022-11-02T23:19:22.141Z,10.00
2022-11-02T23:22:29.259Z,10.00
2022-11-02T23:25:18.939Z,10.20
2022-11-02T23:28:22.438Z,10.20
2022-11-02T23:31:08.008Z,10.00
2022-11-02T23:33:38.068Z,10.10
2022-11-02T23:36:11.088Z,10.00
2022-11-02T23:39:24.266Z,9.90
2022-11-02T23:41:51.100Z,9.80
2022-11-02T23:44:19.088Z,9.70
2022-11-02T23:46:49.214Z,10.00
2022-11-02T23:49:17.764Z,10.10
2022-11-02T23:52:03.001Z,10.10
2022-11-02T23:54:48.383Z,10.20
2022-11-02T23:57:15.447Z,10.20
2022-11-02T23:59:42.330Z,10.40
